sensor_id;sensor_type;location;lat;lon;timestamp;temperature;humidity
10263;DHT22;5177;50.068;8.156;2022-07-23T00:02:08;23.00;99.90
10263;DHT22;5177;50.068;8.156;2022-07-23T00:04:33;23.00;99.90
10263;DHT22;5177;50.068;8.156;2022-07-23T00:06:59;22.90;99.90
10263;DHT22;5177;50.068;8.156;2022-07-23T00:09:24;22.90;99.90
10263;DHT22;5177;50.068;8.156;2022-07-23T00:11:50;22.90;99.90
10263;DHT22;5177;50.068;8.156;2022-07-23T00:14:15;22.90;99.90
10263;DHT22;5177;50.068;8.156;2022-07-23T00:16:41;22.90;99.90
10263;DHT22;5177;50.068;8.156;2022-07-23T00:19:06;22.90;99.90
10263;DHT22;5177;50.068;8.156;2022-07-23T00:21:32;22.90;99.90
10263;DHT22;5177;50.068;8.156;2022-07-23T00:23:57;22.90;99.90
10263;DHT22;5177;50.068;8.156;2022-07-23T00:26:23;22.90;99.90
10263;DHT22;5177;50.068;8.156;2022-07-23T00:28:48;22.90;99.90
10263;DHT22;5177;50.068;8.156;2022-07-23T00:31:14;22.80;99.90
10263;DHT22;5177;50.068;8.156;2022-07-23T00:33:39;22.70;99.90
10263;DHT22;5177;50.068;8.156;2022-07-23T00:36:05;22.70;99.90
10263;DHT22;5177;50.068;8.156;2022-07-23T00:38:30;22.70;99.90
10263;DHT22;5177;50.068;8.156;2022-07-23T00:40:56;22.70;99.90
10263;DHT22;5177;50.068;8.156;2022-07-23T00:43:21;22.70;99.90
10263;DHT22;5177;50.068;8.156;2022-07-23T00:45:47;22.60;99.90
10263;DHT22;5177;50.068;8.156;2022-07-23T00:48:12;22.60;99.90
10263;DHT22;5177;50.068;8.156;2022-07-23T00:50:38;22.60;99.90
10263;DHT22;5177;50.068;8.156;2022-07-23T00:53:04;22.60;99.90
10263;DHT22;5177;50.068;8.156;2022-07-23T00:55:30;22.60;99.90
10263;DHT22;5177;50.068;8.156;2022-07-23T00:57:55;22.60;99.90
10263;DHT22;5177;50.068;8.156;2022-07-23T01:00:21;22.70;99.90
10263;DHT22;5177;50.068;8.156;2022-07-23T01:02:47;22.70;99.90
10263;DHT22;5177;50.068;8.156;2022-07-23T01:05:12;22.80;99.90
10263;DHT22;5177;50.068;8.156;2022-07-23T01:07:38;22.80;99.90
10263;DHT22;5177;50.068;8.156;2022-07-23T01:10:03;22.80;99.90
10263;DHT22;5177;50.068;8.156;2022-07-23T01:12:29;22.90;99.90
10263;DHT22;5177;50.068;8.156;2022-07-23T01:14:56;22.90;99.90
10263;DHT22;5177;50.068;8.156;2022-07-23T01:17:21;22.90;99.90
10263;DHT22;5177;50.068;8.156;2022-07-23T01:19:47;22.80;99.90
10263;DHT22;5177;50.068;8.156;2022-07-23T01:22:12;22.80;99.90
10263;DHT22;5177;50.068;8.156;2022-07-23T01:24:38;22.60;99.90
10263;DHT22;5177;50.068;8.156;2022-07-23T01:27:04;22.40;99.90
10263;DHT22;5177;50.068;8.156;2022-07-23T01:29:30;22.30;99.90
10263;DHT22;5177;50.068;8.156;2022-07-23T01:31:56;22.20;99.90
10263;DHT22;5177;50.068;8.156;2022-07-23T01:34:21;22.10;99.90
10263;DHT22;5177;50.068;8.156;2022-07-23T01:36:47;22.10;99.90
10263;DHT22;5177;50.068;8.156;2022-07-23T01:39:12;22.00;99.90
10263;DHT22;5177;50.068;8.156;2022-07-23T01:41:38;21.90;99.90
10263;DHT22;5177;50.068;8.156;2022-07-23T01:44:03;21.90;99.90
10263;DHT22;5177;50.068;8.156;2022-07-23T01:46:29;21.80;99.90
10263;DHT22;5177;50.068;8.156;2022-07-23T01:48:54;21.80;99.90
10263;DHT22;5177;50.068;8.156;2022-07-23T01:51:20;21.70;99.90
10263;DHT22;5177;50.068;8.156;2022-07-23T01:53:45;21.70;99.90
10263;DHT22;5177;50.068;8.156;2022-07-23T01:56:11;21.70;99.90
10263;DHT22;5177;50.068;8.156;2022-07-23T01:58:36;21.60;99.90
10263;DHT22;5177;50.068;8.156;2022-07-23T02:01:02;21.60;99.90
10263;DHT22;5177;50.068;8.156;2022-07-23T02:03:27;21.60;99.90
10263;DHT22;5177;50.068;8.156;2022-07-23T02:05:53;21.70;99.90
10263;DHT22;5177;50.068;8.156;2022-07-23T02:08:18;21.70;99.90
10263;DHT22;5177;50.068;8.156;2022-07-23T02:10:44;21.70;99.90
10263;DHT22;5177;50.068;8.156;2022-07-23T02:13:10;21.70;99.90
10263;DHT22;5177;50.068;8.156;2022-07-23T02:15:36;21.60;99.90
10263;DHT22;5177;50.068;8.156;2022-07-23T02:18:02;21.70;99.90
10263;DHT22;5177;50.068;8.156;2022-07-23T02:20:27;21.70;99.90
10263;DHT22;5177;50.068;8.156;2022-07-23T02:22:53;21.70;99.90
10263;DHT22;5177;50.068;8.156;2022-07-23T02:25:18;21.70;99.90
10263;DHT22;5177;50.068;8.156;2022-07-23T02:27:44;21.60;99.90
10263;DHT22;5177;50.068;8.156;2022-07-23T02:30:09;21.60;99.90
10263;DHT22;5177;50.068;8.156;2022-07-23T02:32:35;21.60;99.90
10263;DHT22;5177;50.068;8.156;2022-07-23T02:35:01;21.60;99.90
10263;DHT22;5177;50.068;8.156;2022-07-23T02:37:27;21.60;99.90
10263;DHT22;5177;50.068;8.156;2022-07-23T02:39:53;21.50;99.90
10263;DHT22;5177;50.068;8.156;2022-07-23T02:42:18;21.50;99.90
10263;DHT22;5177;50.068;8.156;2022-07-23T02:44:44;21.40;99.90
10263;DHT22;5177;50.068;8.156;2022-07-23T02:47:09;21.40;99.90
10263;DHT22;5177;50.068;8.156;2022-07-23T02:49:35;21.40;99.90
10263;DHT22;5177;50.068;8.156;2022-07-23T02:52:01;21.40;99.90
10263;DHT22;5177;50.068;8.156;2022-07-23T02:54:26;21.40;99.90
10263;DHT22;5177;50.068;8.156;2022-07-23T02:56:52;21.40;99.90
10263;DHT22;5177;50.068;8.156;2022-07-23T02:59:18;21.20;99.90
10263;DHT22;5177;50.068;8.156;2022-07-23T03:01:43;21.30;99.90
10263;DHT22;5177;50.068;8.156;2022-07-23T03:04:09;21.20;99.90
10263;DHT22;5177;50.068;8.156;2022-07-23T03:06:35;21.20;99.90
10263;DHT22;5177;50.068;8.156;2022-07-23T03:09:00;21.10;99.90
10263;DHT22;5177;50.068;8.156;2022-07-23T03:11:26;21.20;99.90
10263;DHT22;5177;50.068;8.156;2022-07-23T03:13:51;21.10;99.90
10263;DHT22;5177;50.068;8.156;2022-07-23T03:16:17;21.00;99.90
10263;DHT22;5177;50.068;8.156;2022-07-23T03:18:42;21.00;99.90
10263;DHT22;5177;50.068;8.156;2022-07-23T03:21:08;21.00;99.90
10263;DHT22;5177;50.068;8.156;2022-07-23T03:23:33;21.00;99.90
10263;DHT22;5177;50.068;8.156;2022-07-23T03:25:59;21.00;99.90
10263;DHT22;5177;50.068;8.156;2022-07-23T03:28:24;21.00;99.90
10263;DHT22;5177;50.068;8.156;2022-07-23T03:30:50;21.00;99.90
10263;DHT22;5177;50.068;8.156;2022-07-23T03:33:16;21.00;99.90
10263;DHT22;5177;50.068;8.156;2022-07-23T03:35:42;21.00;99.90
10263;DHT22;5177;50.068;8.156;2022-07-23T03:38:08;20.90;99.90
10263;DHT22;5177;50.068;8.156;2022-07-23T03:40:33;21.00;99.90
10263;DHT22;5177;50.068;8.156;2022-07-23T03:42:59;21.00;99.90
10263;DHT22;5177;50.068;8.156;2022-07-23T03:45:24;21.00;99.90
10263;DHT22;5177;50.068;8.156;2022-07-23T03:47:50;20.90;99.90
10263;DHT22;5177;50.068;8.156;2022-07-23T03:50:16;20.90;99.90
10263;DHT22;5177;50.068;8.156;2022-07-23T03:52:41;20.80;99.90
10263;DHT22;5177;50.068;8.156;2022-07-23T03:55:07;20.90;99.90
10263;DHT22;5177;50.068;8.156;2022-07-23T03:57:32;20.90;99.90
10263;DHT22;5177;50.068;8.156;2022-07-23T03:59:58;20.90;99.90
10263;DHT22;5177;50.068;8.156;2022-07-23T04:02:24;20.90;99.90
10263;DHT22;5177;50.068;8.156;2022-07-23T04:04:49;20.80;99.90
10263;DHT22;5177;50.068;8.156;2022-07-23T04:07:15;20.70;99.90
10263;DHT22;5177;50.068;8.156;2022-07-23T04:09:42;20.80;99.90
10263;DHT22;5177;50.068;8.156;2022-07-23T04:12:08;20.70;99.90
10263;DHT22;5177;50.068;8.156;2022-07-23T04:14:33;20.70;99.90
10263;DHT22;5177;50.068;8.156;2022-07-23T04:16:59;20.60;99.90
10263;DHT22;5177;50.068;8.156;2022-07-23T04:19:25;20.60;99.90
10263;DHT22;5177;50.068;8.156;2022-07-23T04:21:50;20.60;99.90
10263;DHT22;5177;50.068;8.156;2022-07-23T04:24:16;20.60;99.90
10263;DHT22;5177;50.068;8.156;2022-07-23T04:26:41;20.60;99.90
10263;DHT22;5177;50.068;8.156;2022-07-23T04:29:07;20.60;99.90
10263;DHT22;5177;50.068;8.156;2022-07-23T04:31:32;20.60;99.90
10263;DHT22;5177;50.068;8.156;2022-07-23T04:33:57;20.70;99.90
10263;DHT22;5177;50.068;8.156;2022-07-23T04:36:23;20.80;99.90
10263;DHT22;5177;50.068;8.156;2022-07-23T04:38:48;20.80;99.90
10263;DHT22;5177;50.068;8.156;2022-07-23T04:41:14;20.80;99.90
10263;DHT22;5177;50.068;8.156;2022-07-23T04:43:39;20.90;99.90
10263;DHT22;5177;50.068;8.156;2022-07-23T04:46:05;20.90;99.90
10263;DHT22;5177;50.068;8.156;2022-07-23T04:48:31;21.00;99.90
10263;DHT22;5177;50.068;8.156;2022-07-23T04:50:56;21.20;99.90
10263;DHT22;5177;50.068;8.156;2022-07-23T04:53:22;21.20;99.90
10263;DHT22;5177;50.068;8.156;2022-07-23T04:55:48;21.20;99.90
10263;DHT22;5177;50.068;8.156;2022-07-23T04:58:13;21.20;99.90
10263;DHT22;5177;50.068;8.156;2022-07-23T05:00:39;21.20;99.90
10263;DHT22;5177;50.068;8.156;2022-07-23T05:03:04;21.10;99.90
10263;DHT22;5177;50.068;8.156;2022-07-23T05:05:30;21.20;99.90
10263;DHT22;5177;50.068;8.156;2022-07-23T05:07:55;21.10;99.90
10263;DHT22;5177;50.068;8.156;2022-07-23T05:10:21;21.10;99.90
10263;DHT22;5177;50.068;8.156;2022-07-23T05:12:46;21.20;99.90
10263;DHT22;5177;50.068;8.156;2022-07-23T05:15:12;21.10;99.90
10263;DHT22;5177;50.068;8.156;2022-07-23T05:17:37;21.30;99.90
10263;DHT22;5177;50.068;8.156;2022-07-23T05:20:03;21.20;99.90
10263;DHT22;5177;50.068;8.156;2022-07-23T05:22:28;21.10;99.90
10263;DHT22;5177;50.068;8.156;2022-07-23T05:24:54;21.10;99.90
10263;DHT22;5177;50.068;8.156;2022-07-23T05:27:19;21.10;99.90
10263;DHT22;5177;50.068;8.156;2022-07-23T05:29:45;21.10;99.90
10263;DHT22;5177;50.068;8.156;2022-07-23T05:32:10;21.10;99.90
10263;DHT22;5177;50.068;8.156;2022-07-23T05:34:36;21.10;99.90
10263;DHT22;5177;50.068;8.156;2022-07-23T05:37:01;21.10;99.90
10263;DHT22;5177;50.068;8.156;2022-07-23T05:39:27;21.10;99.90
10263;DHT22;5177;50.068;8.156;2022-07-23T05:41:52;20.90;99.90
10263;DHT22;5177;50.068;8.156;2022-07-23T05:44:18;21.00;99.90
10263;DHT22;5177;50.068;8.156;2022-07-23T05:46:43;21.00;99.90
10263;DHT22;5177;50.068;8.156;2022-07-23T05:49:09;21.00;99.90
10263;DHT22;5177;50.068;8.156;2022-07-23T05:51:34;20.90;99.90
10263;DHT22;5177;50.068;8.156;2022-07-23T05:54:00;21.10;99.90
10263;DHT22;5177;50.068;8.156;2022-07-23T05:56:25;21.00;99.90
10263;DHT22;5177;50.068;8.156;2022-07-23T05:58:51;21.10;99.90
10263;DHT22;5177;50.068;8.156;2022-07-23T06:01:16;21.20;99.90
10263;DHT22;5177;50.068;8.156;2022-07-23T06:03:42;21.30;99.90
10263;DHT22;5177;50.068;8.156;2022-07-23T06:06:07;21.40;99.90
10263;DHT22;5177;50.068;8.156;2022-07-23T06:08:33;21.50;99.90
10263;DHT22;5177;50.068;8.156;2022-07-23T06:10:58;21.60;99.90
10263;DHT22;5177;50.068;8.156;2022-07-23T06:13:24;21.70;99.90
10263;DHT22;5177;50.068;8.156;2022-07-23T06:15:49;21.80;99.90
10263;DHT22;5177;50.068;8.156;2022-07-23T06:18:15;21.80;99.90
10263;DHT22;5177;50.068;8.156;2022-07-23T06:20:40;21.90;99.90
10263;DHT22;5177;50.068;8.156;2022-07-23T06:23:06;22.00;99.90
10263;DHT22;5177;50.068;8.156;2022-07-23T06:25:31;22.10;99.90
10263;DHT22;5177;50.068;8.156;2022-07-23T06:27:57;22.20;99.90
10263;DHT22;5177;50.068;8.156;2022-07-23T06:30:22;22.20;99.90
10263;DHT22;5177;50.068;8.156;2022-07-23T06:32:48;22.30;99.90
10263;DHT22;5177;50.068;8.156;2022-07-23T06:35:14;22.30;99.90
10263;DHT22;5177;50.068;8.156;2022-07-23T06:37:39;22.40;99.90
10263;DHT22;5177;50.068;8.156;2022-07-23T06:40:05;22.50;99.90
10263;DHT22;5177;50.068;8.156;2022-07-23T06:42:31;22.60;99.90
10263;DHT22;5177;50.068;8.156;2022-07-23T06:44:56;22.80;99.90
10263;DHT22;5177;50.068;8.156;2022-07-23T06:47:22;22.80;99.90
10263;DHT22;5177;50.068;8.156;2022-07-23T06:49:47;22.70;99.90
10263;DHT22;5177;50.068;8.156;2022-07-23T06:52:13;22.60;99.90
10263;DHT22;5177;50.068;8.156;2022-07-23T06:54:38;22.70;99.90
10263;DHT22;5177;50.068;8.156;2022-07-23T06:57:04;22.80;99.90
10263;DHT22;5177;50.068;8.156;2022-07-23T06:59:29;22.90;99.90
10263;DHT22;5177;50.068;8.156;2022-07-23T07:01:55;22.90;99.90
10263;DHT22;5177;50.068;8.156;2022-07-23T07:04:20;23.00;99.90
10263;DHT22;5177;50.068;8.156;2022-07-23T07:06:46;23.10;99.90
10263;DHT22;5177;50.068;8.156;2022-07-23T07:09:11;23.00;99.90
10263;DHT22;5177;50.068;8.156;2022-07-23T07:11:37;23.10;99.90
10263;DHT22;5177;50.068;8.156;2022-07-23T07:14:02;23.30;99.90
10263;DHT22;5177;50.068;8.156;2022-07-23T07:16:29;23.40;99.90
10263;DHT22;5177;50.068;8.156;2022-07-23T07:18:55;23.40;99.90
10263;DHT22;5177;50.068;8.156;2022-07-23T07:21:20;23.40;99.90
10263;DHT22;5177;50.068;8.156;2022-07-23T07:23:46;23.40;99.90
10263;DHT22;5177;50.068;8.156;2022-07-23T07:26:11;23.50;99.90
10263;DHT22;5177;50.068;8.156;2022-07-23T07:28:37;23.60;99.90
10263;DHT22;5177;50.068;8.156;2022-07-23T07:31:02;23.60;99.90
10263;DHT22;5177;50.068;8.156;2022-07-23T07:33:27;23.70;99.90
10263;DHT22;5177;50.068;8.156;2022-07-23T07:35:54;23.60;99.90
10263;DHT22;5177;50.068;8.156;2022-07-23T07:38:19;23.60;99.90
10263;DHT22;5177;50.068;8.156;2022-07-23T07:40:45;23.70;99.90
10263;DHT22;5177;50.068;8.156;2022-07-23T07:43:10;23.90;99.90
10263;DHT22;5177;50.068;8.156;2022-07-23T07:45:36;24.00;99.90
10263;DHT22;5177;50.068;8.156;2022-07-23T07:48:01;24.20;99.90
10263;DHT22;5177;50.068;8.156;2022-07-23T07:50:27;24.30;99.90
10263;DHT22;5177;50.068;8.156;2022-07-23T07:52:53;24.60;99.90
10263;DHT22;5177;50.068;8.156;2022-07-23T07:55:18;24.70;99.90
10263;DHT22;5177;50.068;8.156;2022-07-23T07:57:44;24.80;99.90
10263;DHT22;5177;50.068;8.156;2022-07-23T08:00:09;24.80;99.90
10263;DHT22;5177;50.068;8.156;2022-07-23T08:02:54;25.00;99.90
10263;DHT22;5177;50.068;8.156;2022-07-23T08:05:23;25.00;99.90
10263;DHT22;5177;50.068;8.156;2022-07-23T08:07:50;25.30;99.90
10263;DHT22;5177;50.068;8.156;2022-07-23T08:10:15;25.30;99.90
10263;DHT22;5177;50.068;8.156;2022-07-23T08:12:46;25.50;99.90
10263;DHT22;5177;50.068;8.156;2022-07-23T08:15:12;25.60;99.90
10263;DHT22;5177;50.068;8.156;2022-07-23T08:17:38;25.80;99.90
10263;DHT22;5177;50.068;8.156;2022-07-23T08:20:04;25.90;99.90
10263;DHT22;5177;50.068;8.156;2022-07-23T08:25:08;25.80;99.90
10263;DHT22;5177;50.068;8.156;2022-07-23T08:27:34;25.70;99.90
10263;DHT22;5177;50.068;8.156;2022-07-23T08:29:59;25.90;99.90
10263;DHT22;5177;50.068;8.156;2022-07-23T08:32:25;25.90;99.90
10263;DHT22;5177;50.068;8.156;2022-07-23T08:34:50;26.20;99.90
10263;DHT22;5177;50.068;8.156;2022-07-23T08:37:15;26.40;99.90
10263;DHT22;5177;50.068;8.156;2022-07-23T08:39:41;26.50;99.90
10263;DHT22;5177;50.068;8.156;2022-07-23T08:42:06;26.50;99.90
10263;DHT22;5177;50.068;8.156;2022-07-23T08:44:33;26.50;99.90
10263;DHT22;5177;50.068;8.156;2022-07-23T08:46:59;26.70;99.90
10263;DHT22;5177;50.068;8.156;2022-07-23T08:49:25;26.50;99.90
10263;DHT22;5177;50.068;8.156;2022-07-23T08:51:50;26.60;99.90
10263;DHT22;5177;50.068;8.156;2022-07-23T08:54:16;26.90;99.90
10263;DHT22;5177;50.068;8.156;2022-07-23T08:56:42;26.80;99.90
10263;DHT22;5177;50.068;8.156;2022-07-23T08:59:07;27.00;99.90
10263;DHT22;5177;50.068;8.156;2022-07-23T09:01:33;27.30;99.90
10263;DHT22;5177;50.068;8.156;2022-07-23T09:03:59;27.30;99.90
10263;DHT22;5177;50.068;8.156;2022-07-23T09:06:24;27.40;99.90
10263;DHT22;5177;50.068;8.156;2022-07-23T09:08:50;27.50;99.90
10263;DHT22;5177;50.068;8.156;2022-07-23T09:11:16;27.60;99.90
10263;DHT22;5177;50.068;8.156;2022-07-23T09:13:42;27.60;99.90
10263;DHT22;5177;50.068;8.156;2022-07-23T09:16:18;27.70;99.90
10263;DHT22;5177;50.068;8.156;2022-07-23T09:18:48;27.90;99.90
10263;DHT22;5177;50.068;8.156;2022-07-23T09:21:15;28.20;99.90
10263;DHT22;5177;50.068;8.156;2022-07-23T09:23:42;28.10;99.90
10263;DHT22;5177;50.068;8.156;2022-07-23T09:31:24;28.30;99.90
10263;DHT22;5177;50.068;8.156;2022-07-23T09:33:49;28.50;99.90
10263;DHT22;5177;50.068;8.156;2022-07-23T09:36:15;28.60;99.90
10263;DHT22;5177;50.068;8.156;2022-07-23T09:38:47;28.50;99.90
10263;DHT22;5177;50.068;8.156;2022-07-23T09:41:13;28.70;99.90
10263;DHT22;5177;50.068;8.156;2022-07-23T09:43:39;28.90;99.90
10263;DHT22;5177;50.068;8.156;2022-07-23T09:46:21;28.80;99.90
10263;DHT22;5177;50.068;8.156;2022-07-23T09:48:47;29.00;99.90
10263;DHT22;5177;50.068;8.156;2022-07-23T09:51:13;29.10;99.90
10263;DHT22;5177;50.068;8.156;2022-07-23T09:53:59;28.80;99.90
10263;DHT22;5177;50.068;8.156;2022-07-23T09:56:24;29.10;99.90
10263;DHT22;5177;50.068;8.156;2022-07-23T09:58:50;29.30;99.90
10263;DHT22;5177;50.068;8.156;2022-07-23T10:01:48;29.30;99.90
10263;DHT22;5177;50.068;8.156;2022-07-23T10:04:14;29.40;99.90
10263;DHT22;5177;50.068;8.156;2022-07-23T10:06:39;29.30;99.90
10263;DHT22;5177;50.068;8.156;2022-07-23T10:09:05;29.30;99.90
10263;DHT22;5177;50.068;8.156;2022-07-23T10:11:33;29.40;99.90
10263;DHT22;5177;50.068;8.156;2022-07-23T10:13:59;29.50;99.90
10263;DHT22;5177;50.068;8.156;2022-07-23T10:16:26;29.80;99.90
10263;DHT22;5177;50.068;8.156;2022-07-23T10:18:52;30.00;99.90
10263;DHT22;5177;50.068;8.156;2022-07-23T10:21:25;29.90;99.90
10263;DHT22;5177;50.068;8.156;2022-07-23T10:24:36;30.30;99.90
10263;DHT22;5177;50.068;8.156;2022-07-23T10:26:44;30.00;99.90
10263;DHT22;5177;50.068;8.156;2022-07-23T10:29:36;30.20;99.90
10263;DHT22;5177;50.068;8.156;2022-07-23T10:31:59;30.00;99.90
10263;DHT22;5177;50.068;8.156;2022-07-23T10:34:44;29.50;99.90
10263;DHT22;5177;50.068;8.156;2022-07-23T10:37:16;29.60;99.90
10263;DHT22;5177;50.068;8.156;2022-07-23T10:42:36;30.10;99.90
10263;DHT22;5177;50.068;8.156;2022-07-23T10:45:03;30.50;99.90
10263;DHT22;5177;50.068;8.156;2022-07-23T10:47:46;31.00;99.90
10263;DHT22;5177;50.068;8.156;2022-07-23T10:50:25;31.40;99.90
10263;DHT22;5177;50.068;8.156;2022-07-23T10:53:11;31.70;99.90
10263;DHT22;5177;50.068;8.156;2022-07-23T10:58:04;32.10;99.90
10263;DHT22;5177;50.068;8.156;2022-07-23T11:00:30;32.00;99.90
10263;DHT22;5177;50.068;8.156;2022-07-23T11:03:00;32.00;99.90
10263;DHT22;5177;50.068;8.156;2022-07-23T11:05:27;32.30;99.90
10263;DHT22;5177;50.068;8.156;2022-07-23T11:31:57;32.90;95.70
10263;DHT22;5177;50.068;8.156;2022-07-23T11:34:33;33.10;95.00
10263;DHT22;5177;50.068;8.156;2022-07-23T11:36:59;33.00;94.30
10263;DHT22;5177;50.068;8.156;2022-07-23T11:39:26;33.00;93.10
10263;DHT22;5177;50.068;8.156;2022-07-23T11:41:52;33.00;92.90
10263;DHT22;5177;50.068;8.156;2022-07-23T11:44:24;32.80;92.70
10263;DHT22;5177;50.068;8.156;2022-07-23T11:46:59;32.70;93.00
10263;DHT22;5177;50.068;8.156;2022-07-23T11:49:25;32.50;93.00
10263;DHT22;5177;50.068;8.156;2022-07-23T11:52:10;32.50;92.30
10263;DHT22;5177;50.068;8.156;2022-07-23T11:54:37;32.70;93.30
10263;DHT22;5177;50.068;8.156;2022-07-23T11:57:03;32.40;91.90
10263;DHT22;5177;50.068;8.156;2022-07-23T11:59:30;32.50;91.20
10263;DHT22;5177;50.068;8.156;2022-07-23T12:02:00;32.80;91.00
10263;DHT22;5177;50.068;8.156;2022-07-23T12:04:45;33.10;91.40
10263;DHT22;5177;50.068;8.156;2022-07-23T12:09:48;33.20;89.10
10263;DHT22;5177;50.068;8.156;2022-07-23T12:12:14;32.90;87.50
10263;DHT22;5177;50.068;8.156;2022-07-23T12:14:49;33.30;88.20
10263;DHT22;5177;50.068;8.156;2022-07-23T12:17:15;33.50;86.90
10263;DHT22;5177;50.068;8.156;2022-07-23T12:19:41;33.60;85.40
10263;DHT22;5177;50.068;8.156;2022-07-23T12:22:07;33.60;85.70
10263;DHT22;5177;50.068;8.156;2022-07-23T12:24:51;33.70;85.20
10263;DHT22;5177;50.068;8.156;2022-07-23T12:27:19;33.70;82.50
10263;DHT22;5177;50.068;8.156;2022-07-23T12:29:45;33.70;84.70
10263;DHT22;5177;50.068;8.156;2022-07-23T12:32:27;33.80;83.40
10263;DHT22;5177;50.068;8.156;2022-07-23T12:35:06;34.10;84.40
10263;DHT22;5177;50.068;8.156;2022-07-23T12:37:33;34.30;83.20
10263;DHT22;5177;50.068;8.156;2022-07-23T12:40:17;34.50;80.80
10263;DHT22;5177;50.068;8.156;2022-07-23T12:42:44;34.30;80.20
10263;DHT22;5177;50.068;8.156;2022-07-23T12:45:10;33.90;80.20
10263;DHT22;5177;50.068;8.156;2022-07-23T12:47:50;34.00;81.30
10263;DHT22;5177;50.068;8.156;2022-07-23T12:53:11;34.40;78.60
10263;DHT22;5177;50.068;8.156;2022-07-23T12:55:37;34.40;80.00
10263;DHT22;5177;50.068;8.156;2022-07-23T12:58:10;34.80;77.70
10263;DHT22;5177;50.068;8.156;2022-07-23T13:00:50;35.00;76.60
10263;DHT22;5177;50.068;8.156;2022-07-23T13:05:47;34.30;74.90
10263;DHT22;5177;50.068;8.156;2022-07-23T13:08:12;33.40;76.30
10263;DHT22;5177;50.068;8.156;2022-07-23T13:10:38;32.80;79.00
10263;DHT22;5177;50.068;8.156;2022-07-23T13:13:07;32.50;83.40
10263;DHT22;5177;50.068;8.156;2022-07-23T13:15:33;32.30;84.50
10263;DHT22;5177;50.068;8.156;2022-07-23T13:17:59;32.20;85.70
10263;DHT22;5177;50.068;8.156;2022-07-23T13:20:24;32.80;86.10
10263;DHT22;5177;50.068;8.156;2022-07-23T13:22:49;32.80;81.80
10263;DHT22;5177;50.068;8.156;2022-07-23T13:25:15;33.10;80.90
10263;DHT22;5177;50.068;8.156;2022-07-23T13:27:40;33.50;81.50
10263;DHT22;5177;50.068;8.156;2022-07-23T13:30:06;33.70;79.00
10263;DHT22;5177;50.068;8.156;2022-07-23T13:32:32;33.50;78.80
10263;DHT22;5177;50.068;8.156;2022-07-23T13:34:57;33.50;79.90
10263;DHT22;5177;50.068;8.156;2022-07-23T13:37:23;33.20;80.00
10263;DHT22;5177;50.068;8.156;2022-07-23T13:39:48;32.70;80.70
10263;DHT22;5177;50.068;8.156;2022-07-23T13:42:14;32.20;81.80
10263;DHT22;5177;50.068;8.156;2022-07-23T13:44:39;31.80;83.30
10263;DHT22;5177;50.068;8.156;2022-07-23T13:47:05;31.60;84.80
10263;DHT22;5177;50.068;8.156;2022-07-23T13:49:30;31.40;85.50
10263;DHT22;5177;50.068;8.156;2022-07-23T13:51:56;32.10;84.30
10263;DHT22;5177;50.068;8.156;2022-07-23T13:54:23;32.10;84.20
10263;DHT22;5177;50.068;8.156;2022-07-23T13:56:48;32.10;84.00
10263;DHT22;5177;50.068;8.156;2022-07-23T13:59:14;32.00;83.70
10263;DHT22;5177;50.068;8.156;2022-07-23T14:01:39;32.30;82.40
10263;DHT22;5177;50.068;8.156;2022-07-23T14:04:05;33.30;80.80
10263;DHT22;5177;50.068;8.156;2022-07-23T14:06:30;34.60;78.10
10263;DHT22;5177;50.068;8.156;2022-07-23T14:08:56;35.10;75.40
10263;DHT22;5177;50.068;8.156;2022-07-23T14:11:21;35.30;72.60
10263;DHT22;5177;50.068;8.156;2022-07-23T14:13:47;34.60;71.80
10263;DHT22;5177;50.068;8.156;2022-07-23T14:16:12;33.70;74.70
10263;DHT22;5177;50.068;8.156;2022-07-23T14:18:38;33.80;76.20
10263;DHT22;5177;50.068;8.156;2022-07-23T14:21:03;33.90;74.90
10263;DHT22;5177;50.068;8.156;2022-07-23T14:23:29;34.50;72.80
10263;DHT22;5177;50.068;8.156;2022-07-23T14:25:54;34.10;72.10
10263;DHT22;5177;50.068;8.156;2022-07-23T14:28:20;33.60;73.50
10263;DHT22;5177;50.068;8.156;2022-07-23T14:30:45;33.00;76.00
10263;DHT22;5177;50.068;8.156;2022-07-23T14:33:11;32.70;76.40
10263;DHT22;5177;50.068;8.156;2022-07-23T14:35:38;33.00;76.70
10263;DHT22;5177;50.068;8.156;2022-07-23T14:38:03;34.20;73.80
10263;DHT22;5177;50.068;8.156;2022-07-23T14:40:29;35.60;71.60
10263;DHT22;5177;50.068;8.156;2022-07-23T14:42:54;37.20;65.90
10263;DHT22;5177;50.068;8.156;2022-07-23T14:45:20;37.80;62.70
10263;DHT22;5177;50.068;8.156;2022-07-23T14:47:46;38.20;59.60
10263;DHT22;5177;50.068;8.156;2022-07-23T14:50:12;38.50;59.50
10263;DHT22;5177;50.068;8.156;2022-07-23T14:52:37;38.50;59.10
10263;DHT22;5177;50.068;8.156;2022-07-23T14:55:03;38.80;57.80
10263;DHT22;5177;50.068;8.156;2022-07-23T14:57:28;38.70;57.70
10263;DHT22;5177;50.068;8.156;2022-07-23T14:59:54;38.30;57.80
10263;DHT22;5177;50.068;8.156;2022-07-23T15:02:20;37.60;57.00
10263;DHT22;5177;50.068;8.156;2022-07-23T15:04:45;37.90;58.10
10263;DHT22;5177;50.068;8.156;2022-07-23T15:07:11;38.20;56.90
10263;DHT22;5177;50.068;8.156;2022-07-23T15:09:37;38.50;55.70
10263;DHT22;5177;50.068;8.156;2022-07-23T15:12:03;38.30;56.30
10263;DHT22;5177;50.068;8.156;2022-07-23T15:14:28;38.30;54.30
10263;DHT22;5177;50.068;8.156;2022-07-23T15:16:54;38.10;52.60
10263;DHT22;5177;50.068;8.156;2022-07-23T15:19:19;37.50;53.40
10263;DHT22;5177;50.068;8.156;2022-07-23T15:21:45;37.80;52.30
10263;DHT22;5177;50.068;8.156;2022-07-23T15:24:10;37.30;52.60
10263;DHT22;5177;50.068;8.156;2022-07-23T15:26:36;37.30;53.00
10263;DHT22;5177;50.068;8.156;2022-07-23T15:29:01;37.80;51.80
10263;DHT22;5177;50.068;8.156;2022-07-23T15:31:28;38.30;50.20
10263;DHT22;5177;50.068;8.156;2022-07-23T15:33:53;38.30;50.70
10263;DHT22;5177;50.068;8.156;2022-07-23T15:36:20;37.60;50.20
10263;DHT22;5177;50.068;8.156;2022-07-23T15:38:45;37.60;50.40
10263;DHT22;5177;50.068;8.156;2022-07-23T15:41:11;37.00;51.20
10263;DHT22;5177;50.068;8.156;2022-07-23T15:43:36;36.20;52.00
10263;DHT22;5177;50.068;8.156;2022-07-23T15:46:02;35.50;52.70
10263;DHT22;5177;50.068;8.156;2022-07-23T15:48:28;34.50;53.70
10263;DHT22;5177;50.068;8.156;2022-07-23T15:50:54;34.20;54.90
10263;DHT22;5177;50.068;8.156;2022-07-23T15:53:19;33.70;54.70
10263;DHT22;5177;50.068;8.156;2022-07-23T15:55:45;33.30;56.00
10263;DHT22;5177;50.068;8.156;2022-07-23T15:58:11;32.70;56.90
10263;DHT22;5177;50.068;8.156;2022-07-23T16:00:36;32.40;57.70
10263;DHT22;5177;50.068;8.156;2022-07-23T16:03:02;32.00;58.30
10263;DHT22;5177;50.068;8.156;2022-07-23T16:05:28;31.90;59.70
10263;DHT22;5177;50.068;8.156;2022-07-23T16:07:53;31.80;59.90
10263;DHT22;5177;50.068;8.156;2022-07-23T16:10:19;31.70;59.80
10263;DHT22;5177;50.068;8.156;2022-07-23T16:12:46;31.80;58.30
10263;DHT22;5177;50.068;8.156;2022-07-23T16:15:11;31.50;58.80
10263;DHT22;5177;50.068;8.156;2022-07-23T16:17:37;31.50;58.90
10263;DHT22;5177;50.068;8.156;2022-07-23T16:20:03;31.50;59.80
10263;DHT22;5177;50.068;8.156;2022-07-23T16:22:29;31.40;59.10
10263;DHT22;5177;50.068;8.156;2022-07-23T16:24:54;31.20;60.20
10263;DHT22;5177;50.068;8.156;2022-07-23T16:27:20;31.00;61.30